Time;durP1;ratioP1;P1;durP2;ratioP2;P2;SDS_P1;SDS_P2;PMS_P1;PMS_P2;Temp;Humidity;BMP_temperature;BMP_pressure;BME280_temperature;BME280_humidity;BME280_pressure;Samples;Min_cycle;Max_cycle;Signal;HPM_P1;HPM_P2
2023/08/07 00:00:22;;;;;;;11.43;1.63;;;13.90;99.90;;;;;;5033778;28;20545;-85
2023/08/07 00:02:48;;;;;;;8.88;1.55;;;13.90;99.90;;;;;;5015973;28;20428;-77
2023/08/07 00:05:14;;;;;;;9.98;1.77;;;13.90;99.90;;;;;;5032223;28;20018;-77
2023/08/07 00:07:39;;;;;;;7.97;1.60;;;13.80;99.90;;;;;;5016032;28;20025;-85
2023/08/07 00:10:06;;;;;;;11.30;1.70;;;13.80;99.90;;;;;;5015996;28;20037;-84
2023/08/07 00:12:32;;;;;;;6.43;1.00;;;13.80;99.90;;;;;;5033555;28;20026;-84
2023/08/07 00:14:57;;;;;;;7.00;1.10;;;13.80;99.90;;;;;;5033556;28;20033;-87
2023/08/07 00:17:23;;;;;;;2.88;0.90;;;13.80;99.90;;;;;;5032385;28;20033;-84
2023/08/07 00:19:48;;;;;;;6.63;0.95;;;13.80;99.90;;;;;;5032121;28;20029;-75
2023/08/07 00:22:14;;;;;;;4.50;0.60;;;13.70;99.90;;;;;;5033335;28;20029;-77
2023/08/07 00:24:40;;;;;;;6.07;1.52;;;13.70;99.90;;;;;;5015750;28;20032;-75
2023/08/07 00:27:06;;;;;;;5.80;0.93;;;13.70;99.90;;;;;;5015956;28;20018;-88
2023/08/07 00:29:33;;;;;;;5.22;0.88;;;13.70;99.90;;;;;;4999537;28;20042;-77
2023/08/07 00:31:58;;;;;;;7.20;1.08;;;13.60;99.90;;;;;;4999520;28;20025;-83
2023/08/07 00:34:24;;;;;;;4.80;0.98;;;13.70;99.90;;;;;;5032222;28;20120;-87
2023/08/07 00:36:50;;;;;;;5.65;1.10;;;13.60;99.90;;;;;;4999155;28;20030;-85
2023/08/07 00:39:15;;;;;;;8.70;1.40;;;13.60;99.90;;;;;;5031841;28;20539;-77
2023/08/07 00:41:41;;;;;;;6.95;1.10;;;13.60;99.90;;;;;;5033336;28;20105;-87
2023/08/07 00:44:07;;;;;;;10.98;1.45;;;13.60;99.90;;;;;;4999373;28;20028;-82
2023/08/07 00:46:33;;;;;;;9.05;1.05;;;13.60;99.90;;;;;;5018140;28;20026;-87
2023/08/07 00:48:58;;;;;;;5.68;1.00;;;13.60;99.90;;;;;;5036044;28;20060;-87
2023/08/07 00:51:24;;;;;;;10.82;1.23;;;13.60;99.90;;;;;;5019464;28;20025;-84
2023/08/07 00:53:50;;;;;;;8.02;1.33;;;13.60;99.90;;;;;;5003170;28;20060;-85
2023/08/07 00:56:17;;;;;;;10.88;1.17;;;13.60;99.90;;;;;;5003134;28;20470;-77
2023/08/07 00:58:43;;;;;;;16.40;1.92;;;13.60;99.90;;;;;;5002968;28;20030;-76
2023/08/07 01:01:09;;;;;;;7.13;1.50;;;13.60;99.90;;;;;;5002832;28;20029;-75
2023/08/07 01:03:35;;;;;;;9.38;1.67;;;13.60;99.90;;;;;;5037176;28;20535;-75
2023/08/07 01:06:01;;;;;;;6.93;1.67;;;13.60;99.90;;;;;;5019245;28;20056;-75
2023/08/07 01:08:27;;;;;;;12.63;1.75;;;13.60;99.90;;;;;;5036811;28;20526;-76
2023/08/07 01:11:20;;;;;;;11.30;2.00;;;13.60;99.90;;;;;;5036732;28;20026;-76
2023/08/07 01:14:10;;;;;;;10.50;1.73;;;13.60;99.90;;;;;;5036768;28;20028;-82
2023/08/07 01:16:48;;;;;;;10.15;1.85;;;13.60;99.90;;;;;;5036555;28;20021;-85
2023/08/07 01:19:24;;;;;;;12.07;2.08;;;13.60;99.90;;;;;;5036670;28;20026;-84
2023/08/07 01:22:03;;;;;;;9.63;1.58;;;13.60;99.90;;;;;;5035275;28;20402;-84
2023/08/07 01:24:28;;;;;;;16.33;1.80;;;13.60;99.90;;;;;;5036493;28;20013;-76
2023/08/07 01:27:00;;;;;;;13.82;2.35;;;13.60;99.90;;;;;;5018607;28;20022;-85
2023/08/07 01:29:38;;;;;;;13.98;1.90;;;13.70;99.90;;;;;;5036308;28;20045;-76
2023/08/07 01:32:08;;;;;;;11.25;2.70;;;13.70;99.90;;;;;;5019496;28;20049;-78
2023/08/07 01:34:35;;;;;;;10.32;1.98;;;13.70;99.90;;;;;;5036318;28;20374;-76
2023/08/07 01:37:03;;;;;;;13.23;2.78;;;13.70;99.90;;;;;;5036141;28;20051;-76
2023/08/07 01:39:30;;;;;;;11.38;2.22;;;13.80;99.90;;;;;;5036154;28;20026;-86
2023/08/07 01:42:00;;;;;;;9.07;1.90;;;13.70;99.90;;;;;;5034867;28;20476;-75
2023/08/07 01:44:26;;;;;;;10.25;1.90;;;13.80;99.90;;;;;;5036390;28;20508;-77
2023/08/07 01:46:51;;;;;;;16.02;2.75;;;13.80;99.90;;;;;;5036200;28;20055;-85
2023/08/07 01:49:17;;;;;;;11.15;2.33;;;13.80;99.90;;;;;;5018824;28;20133;-84
2023/08/07 01:51:42;;;;;;;15.90;3.45;;;13.80;99.90;;;;;;5002157;28;20053;-76
2023/08/07 01:54:08;;;;;;;9.93;2.40;;;13.70;99.90;;;;;;5018379;28;20034;-77
2023/08/07 01:56:34;;;;;;;9.43;2.03;;;13.80;99.90;;;;;;5036018;28;20033;-77
2023/08/07 01:58:59;;;;;;;13.57;2.38;;;13.80;99.90;;;;;;5018047;28;20493;-82
2023/08/07 02:01:25;;;;;;;13.02;2.28;;;13.80;99.90;;;;;;5018249;28;20073;-83
2023/08/07 02:03:50;;;;;;;12.02;2.50;;;13.90;99.90;;;;;;5018202;28;20030;-76
2023/08/07 02:06:16;;;;;;;13.82;3.03;;;13.90;99.90;;;;;;5035774;28;20053;-84
2023/08/07 02:08:42;;;;;;;14.15;2.40;;;13.90;99.90;;;;;;5001877;28;20018;-86
2023/08/07 02:11:07;;;;;;;10.38;2.40;;;13.90;99.90;;;;;;5018250;28;20037;-76
2023/08/07 02:13:33;;;;;;;13.50;2.97;;;13.90;99.90;;;;;;5034216;28;20025;-76
2023/08/07 02:15:58;;;;;;;12.20;2.28;;;13.90;99.90;;;;;;5034293;28;20033;-77
2023/08/07 02:18:24;;;;;;;14.48;4.10;;;13.90;99.90;;;;;;5034367;28;20033;-85
2023/08/07 02:20:50;;;;;;;11.75;2.42;;;13.90;99.90;;;;;;5035784;28;20030;-85
2023/08/07 02:23:15;;;;;;;10.80;1.98;;;13.90;99.90;;;;;;5035597;28;20553;-84
2023/08/07 02:25:41;;;;;;;17.13;3.00;;;13.90;99.90;;;;;;5017906;28;20071;-84
2023/08/07 02:28:06;;;;;;;13.45;2.40;;;13.90;99.90;;;;;;5017599;28;20518;-84
2023/08/07 02:30:32;;;;;;;13.60;2.55;;;13.90;99.90;;;;;;5001035;28;20049;-85
2023/08/07 02:32:58;;;;;;;16.90;3.17;;;14.00;99.90;;;;;;5001282;28;20030;-77
2023/08/07 02:35:23;;;;;;;15.63;3.97;;;14.00;99.90;;;;;;5035192;28;20029;-77
2023/08/07 02:37:49;;;;;;;12.02;2.60;;;14.00;99.90;;;;;;5033783;28;20029;-76
2023/08/07 02:40:15;;;;;;;11.23;2.40;;;14.00;99.90;;;;;;5035261;28;20075;-86
2023/08/07 02:42:42;;;;;;;10.38;2.80;;;14.00;99.90;;;;;;5035048;28;20029;-76
2023/08/07 02:45:08;;;;;;;11.30;2.58;;;14.00;99.90;;;;;;5017198;28;20022;-78
2023/08/07 02:47:33;;;;;;;12.82;2.38;;;14.00;99.90;;;;;;5017320;28;20132;-76
2023/08/07 02:49:59;;;;;;;14.48;2.75;;;14.00;99.90;;;;;;5035006;28;20116;-76
2023/08/07 02:52:25;;;;;;;8.25;2.08;;;14.10;99.90;;;;;;5034822;28;20159;-77
2023/08/07 02:54:50;;;;;;;14.93;3.10;;;14.00;99.90;;;;;;5033539;28;20026;-77
2023/08/07 02:57:16;;;;;;;11.32;1.98;;;14.00;99.90;;;;;;5035072;28;20107;-84
2023/08/07 02:59:42;;;;;;;12.98;2.35;;;14.00;99.90;;;;;;5017516;28;20033;-84
2023/08/07 03:02:07;;;;;;;12.77;2.40;;;14.00;99.90;;;;;;5017373;28;20029;-84
2023/08/07 03:04:33;;;;;;;7.57;1.70;;;14.00;99.90;;;;;;5035027;28;20017;-83
2023/08/07 03:06:59;;;;;;;16.38;2.50;;;13.90;99.90;;;;;;5000500;28;20113;-75
2023/08/07 03:09:25;;;;;;;16.77;3.53;;;13.90;99.90;;;;;;5034015;28;20037;-76
2023/08/07 03:11:50;;;;;;;13.25;2.45;;;13.90;99.90;;;;;;5034857;28;20036;-85
2023/08/07 03:14:16;;;;;;;13.75;2.40;;;13.90;99.90;;;;;;5017216;28;20029;-76
2023/08/07 03:16:42;;;;;;;12.15;2.28;;;13.90;99.90;;;;;;5000808;28;20060;-85
2023/08/07 03:19:07;;;;;;;15.23;1.85;;;13.90;99.90;;;;;;5000673;28;20033;-84
2023/08/07 03:21:33;;;;;;;12.00;2.65;;;13.90;99.90;;;;;;5016950;28;20454;-76
2023/08/07 03:23:58;;;;;;;11.57;2.25;;;13.90;99.90;;;;;;5033148;28;20025;-84
2023/08/07 03:26:24;;;;;;;7.38;1.92;;;13.90;99.90;;;;;;5034585;28;20080;-85
2023/08/07 03:28:50;;;;;;;9.23;2.38;;;13.90;99.90;;;;;;5033135;28;20391;-85
2023/08/07 03:31:16;;;;;;;8.15;2.40;;;13.90;99.90;;;;;;5016666;28;20087;-76
2023/08/07 03:33:42;;;;;;;12.32;2.70;;;13.80;99.90;;;;;;5032909;28;20566;-79
2023/08/07 03:36:09;;;;;;;13.43;2.33;;;13.90;99.90;;;;;;5016439;28;20021;-76
2023/08/07 03:38:34;;;;;;;12.82;2.88;;;13.80;99.90;;;;;;5034150;28;20057;-83
2023/08/07 03:41:00;;;;;;;13.20;3.08;;;13.80;99.90;;;;;;5000284;28;20053;-77
2023/08/07 03:43:25;;;;;;;13.15;2.53;;;13.80;99.90;;;;;;5016689;28;20028;-76
2023/08/07 03:45:58;;;;;;;12.80;2.67;;;13.80;99.90;;;;;;5034151;28;20110;-82
2023/08/07 03:48:23;;;;;;;11.15;2.17;;;13.80;99.90;;;;;;5033926;28;20076;-84
2023/08/07 03:50:49;;;;;;;9.82;2.38;;;13.70;99.90;;;;;;5000217;28;20479;-84
2023/08/07 03:53:15;;;;;;;8.20;2.58;;;13.70;99.90;;;;;;5016048;28;20136;-76
2023/08/07 03:55:41;;;;;;;12.32;3.03;;;13.80;99.90;;;;;;5016078;28;20032;-80
2023/08/07 03:58:07;;;;;;;8.93;1.70;;;13.80;99.90;;;;;;5032594;28;20025;-75
2023/08/07 04:00:33;;;;;;;11.25;2.35;;;13.80;99.90;;;;;;5016191;28;20040;-76
2023/08/07 04:02:59;;;;;;;12.88;2.35;;;13.80;99.90;;;;;;5033954;28;20037;-77
2023/08/07 04:05:24;;;;;;;6.93;1.80;;;13.80;99.90;;;;;;5032342;28;20079;-75
2023/08/07 04:07:50;;;;;;;10.88;1.95;;;13.80;99.90;;;;;;5033633;28;20100;-80
2023/08/07 04:10:15;;;;;;;14.65;2.10;;;13.80;99.90;;;;;;5032299;28;20026;-83
2023/08/07 04:12:41;;;;;;;8.43;1.50;;;13.80;99.90;;;;;;5032693;28;20422;-77
2023/08/07 04:15:08;;;;;;;10.75;1.83;;;13.80;99.90;;;;;;5016035;28;20370;-76
2023/08/07 04:17:34;;;;;;;9.57;1.55;;;13.80;99.90;;;;;;5033447;28;20057;-77
2023/08/07 04:20:00;;;;;;;7.18;1.67;;;13.90;99.90;;;;;;4998573;28;20057;-77
2023/08/07 04:22:25;;;;;;;8.02;1.60;;;13.80;99.90;;;;;;4999487;28;20040;-85
2023/08/07 04:24:51;;;;;;;7.15;2.35;;;13.90;99.90;;;;;;5015747;28;20029;-82
2023/08/07 04:27:16;;;;;;;7.60;1.88;;;13.90;99.90;;;;;;4999480;28;20036;-83
2023/08/07 04:29:42;;;;;;;7.05;1.50;;;13.90;99.90;;;;;;5015568;28;20041;-76
2023/08/07 04:32:08;;;;;;;7.05;1.75;;;13.90;99.90;;;;;;5032302;28;20183;-83
2023/08/07 04:34:35;;;;;;;8.20;2.53;;;13.80;99.90;;;;;;5015901;28;20036;-77
2023/08/07 04:37:00;;;;;;;11.63;1.83;;;13.80;99.90;;;;;;5033236;28;20025;-76
2023/08/07 04:39:26;;;;;;;7.32;1.85;;;13.80;99.90;;;;;;5002189;28;20106;-76
2023/08/07 04:41:52;;;;;;;6.57;1.80;;;13.80;99.90;;;;;;5031646;28;20037;-83
2023/08/07 04:44:17;;;;;;;8.23;2.10;;;13.80;99.90;;;;;;5014190;28;20030;-84
2023/08/07 04:46:43;;;;;;;12.88;2.83;;;13.80;99.90;;;;;;4998207;28;20029;-84
2023/08/07 04:49:10;;;;;;;9.15;2.10;;;13.80;99.90;;;;;;5014492;28;20474;-76
2023/08/07 04:51:36;;;;;;;8.48;2.67;;;13.80;99.90;;;;;;5015013;28;20020;-84
2023/08/07 04:54:01;;;;;;;9.82;2.47;;;13.80;99.90;;;;;;5032940;28;20022;-85
2023/08/07 04:56:27;;;;;;;11.50;2.65;;;13.80;99.90;;;;;;4999268;28;20040;-85
2023/08/07 04:58:54;;;;;;;8.15;1.77;;;13.80;99.90;;;;;;4999343;28;20032;-76
2023/08/07 05:01:19;;;;;;;10.43;2.05;;;13.80;99.90;;;;;;5015479;28;20036;-76
2023/08/07 05:03:45;;;;;;;11.60;2.60;;;13.80;99.90;;;;;;5015268;28;20390;-76
2023/08/07 05:06:10;;;;;;;9.90;2.85;;;13.80;99.90;;;;;;4998985;28;20033;-76
2023/08/07 05:08:36;;;;;;;9.30;3.08;;;13.80;99.90;;;;;;5015220;28;20022;-77
2023/08/07 05:11:02;;;;;;;7.75;2.95;;;13.80;99.90;;;;;;5015460;28;20029;-87
2023/08/07 05:13:27;;;;;;;11.98;2.97;;;13.80;99.90;;;;;;4999126;28;20469;-76
2023/08/07 05:15:53;;;;;;;12.95;3.03;;;13.80;99.90;;;;;;5032860;28;20115;-78
2023/08/07 05:18:19;;;;;;;11.73;3.10;;;13.80;99.90;;;;;;4998867;28;20037;-77
2023/08/07 05:20:44;;;;;;;15.48;3.17;;;13.90;99.90;;;;;;5015446;28;20504;-88
2023/08/07 05:23:10;;;;;;;12.00;2.90;;;13.90;99.90;;;;;;4999201;28;20018;-85
2023/08/07 05:25:37;;;;;;;11.68;3.03;;;13.90;99.90;;;;;;4998900;28;20024;-76
2023/08/07 05:28:02;;;;;;;10.95;2.97;;;13.90;99.90;;;;;;5032934;28;20022;-85
2023/08/07 05:30:28;;;;;;;13.68;3.13;;;14.00;99.90;;;;;;4998968;28;20136;-76
2023/08/07 05:32:54;;;;;;;12.00;3.00;;;14.00;99.90;;;;;;5035524;28;20032;-76
2023/08/07 05:35:20;;;;;;;13.38;3.10;;;14.00;99.90;;;;;;5018830;28;20033;-86
2023/08/07 05:37:45;;;;;;;12.57;3.05;;;14.00;99.90;;;;;;5018772;28;20041;-86
2023/08/07 05:40:11;;;;;;;16.08;3.15;;;14.00;99.90;;;;;;5002398;28;20029;-86
2023/08/07 05:42:37;;;;;;;11.43;2.35;;;14.10;99.90;;;;;;5002802;28;20022;-84
2023/08/07 05:45:03;;;;;;;16.42;2.85;;;14.10;99.90;;;;;;5002758;28;20017;-86
2023/08/07 05:47:29;;;;;;;9.30;2.85;;;14.10;99.90;;;;;;5018725;28;20025;-83
2023/08/07 05:49:55;;;;;;;14.07;2.85;;;14.10;99.90;;;;;;5002963;28;20032;-86
2023/08/07 05:52:20;;;;;;;12.95;2.72;;;14.20;99.90;;;;;;5002909;28;20025;-86
2023/08/07 05:54:46;;;;;;;12.15;2.92;;;14.20;99.90;;;;;;5019153;28;20474;-85
2023/08/07 05:57:12;;;;;;;12.80;3.70;;;14.20;99.90;;;;;;5019174;28;20032;-86
2023/08/07 05:59:44;;;;;;;11.50;3.28;;;14.30;99.90;;;;;;5002356;28;20493;-77
2023/08/07 06:02:11;;;;;;;11.38;2.88;;;14.20;99.90;;;;;;5035934;28;20025;-77
2023/08/07 06:04:37;;;;;;;11.75;2.63;;;14.30;99.90;;;;;;5018063;28;20053;-76
2023/08/07 06:07:03;;;;;;;10.73;1.95;;;14.30;99.90;;;;;;5018358;28;20052;-84
2023/08/07 06:09:31;;;;;;;11.75;3.08;;;14.40;99.90;;;;;;5002207;28;20099;-77
2023/08/07 06:11:56;;;;;;;15.05;2.75;;;14.40;99.90;;;;;;5018513;28;20032;-84
2023/08/07 06:14:25;;;;;;;11.07;2.83;;;14.50;99.90;;;;;;5001619;28;20026;-77
2023/08/07 06:16:51;;;;;;;15.13;2.97;;;14.40;99.90;;;;;;5018609;28;20025;-84
2023/08/07 06:19:16;;;;;;;8.90;2.33;;;14.50;99.90;;;;;;5001737;28;20390;-85
2023/08/07 06:21:42;;;;;;;11.93;3.42;;;14.50;99.90;;;;;;5018469;28;20524;-84
2023/08/07 06:24:07;;;;;;;17.48;2.72;;;14.50;99.90;;;;;;5001867;28;20129;-83
2023/08/07 06:26:33;;;;;;;12.73;2.88;;;14.50;99.90;;;;;;5001881;28;20033;-83
2023/08/07 06:28:58;;;;;;;13.90;2.78;;;14.50;99.90;;;;;;5018787;28;20131;-84
2023/08/07 06:31:24;;;;;;;9.93;2.55;;;14.50;99.90;;;;;;5001895;28;20068;-86
2023/08/07 06:33:50;;;;;;;7.30;2.20;;;14.50;99.90;;;;;;5018070;28;20033;-75
2023/08/07 06:36:16;;;;;;;11.38;2.67;;;14.60;99.90;;;;;;5017396;28;20473;-76
2023/08/07 06:38:41;;;;;;;14.70;2.70;;;14.60;99.90;;;;;;5018236;28;20034;-77
2023/08/07 06:41:07;;;;;;;10.18;2.65;;;14.60;99.90;;;;;;5017190;28;20035;-76
2023/08/07 06:43:32;;;;;;;9.30;2.53;;;14.70;99.90;;;;;;5016842;28;20022;-75
2023/08/07 06:45:59;;;;;;;13.48;2.50;;;14.70;99.90;;;;;;5034997;28;20469;-75
2023/08/07 06:48:24;;;;;;;9.63;2.38;;;14.80;99.90;;;;;;5035349;28;20037;-85
2023/08/07 06:50:51;;;;;;;9.75;2.75;;;14.80;99.90;;;;;;5018290;28;20041;-81
2023/08/07 06:53:17;;;;;;;9.23;2.35;;;14.90;99.90;;;;;;5035206;28;20036;-84
2023/08/07 06:55:43;;;;;;;10.98;2.78;;;15.00;99.90;;;;;;5035506;28;20112;-75
2023/08/07 06:58:09;;;;;;;12.23;2.15;;;15.00;99.90;;;;;;5034892;28;20036;-83
2023/08/07 07:00:38;;;;;;;16.75;2.60;;;15.10;99.90;;;;;;5000773;28;20030;-74
2023/08/07 07:03:04;;;;;;;13.75;3.03;;;15.10;99.90;;;;;;5034646;28;20119;-77
2023/08/07 07:05:31;;;;;;;8.07;2.20;;;15.20;99.90;;;;;;5000376;28;20734;-77
2023/08/07 07:07:57;;;;;;;12.32;2.40;;;15.20;99.90;;;;;;5034508;28;20052;-75
2023/08/07 07:10:23;;;;;;;7.78;1.90;;;15.20;99.90;;;;;;5017162;28;20054;-83
2023/08/07 07:12:49;;;;;;;8.38;1.95;;;15.30;99.90;;;;;;5017125;28;20485;-75
2023/08/07 07:15:15;;;;;;;7.93;2.35;;;15.40;99.90;;;;;;5016609;28;20531;-76
2023/08/07 07:17:40;;;;;;;10.80;2.67;;;15.40;99.90;;;;;;5034776;28;20036;-85
2023/08/07 07:20:09;;;;;;;10.75;2.20;;;15.50;99.90;;;;;;5016432;28;20021;-75
2023/08/07 07:22:35;;;;;;;11.63;2.22;;;15.50;99.90;;;;;;5017015;28;20036;-76
2023/08/07 07:25:00;;;;;;;9.75;2.40;;;15.60;99.90;;;;;;5034408;28;20372;-83
2023/08/07 07:27:26;;;;;;;9.82;2.17;;;15.60;99.90;;;;;;5000521;28;20071;-83
2023/08/07 07:29:52;;;;;;;15.02;2.80;;;15.70;99.90;;;;;;5016536;28;20037;-85
2023/08/07 07:32:18;;;;;;;9.95;2.75;;;15.70;99.90;;;;;;5016993;28;20060;-75
2023/08/07 07:34:44;;;;;;;9.93;1.95;;;15.70;99.90;;;;;;5034366;28;20025;-75
2023/08/07 07:37:10;;;;;;;8.38;2.50;;;15.70;99.90;;;;;;5016894;28;20117;-76
2023/08/07 07:39:36;;;;;;;11.95;1.98;;;15.70;99.90;;;;;;5035096;28;20037;-75
2023/08/07 07:42:03;;;;;;;9.98;2.63;;;15.60;99.90;;;;;;5033660;28;20373;-75
2023/08/07 07:44:29;;;;;;;7.53;2.28;;;15.60;99.90;;;;;;5016146;28;20033;-76
2023/08/07 07:46:54;;;;;;;12.27;2.78;;;15.70;99.90;;;;;;5016792;28;20025;-83
2023/08/07 07:49:20;;;;;;;16.83;3.35;;;15.70;99.90;;;;;;5016173;28;20056;-77
2023/08/07 07:51:46;;;;;;;14.93;3.35;;;15.90;99.90;;;;;;5034142;28;20466;-83
2023/08/07 07:54:12;;;;;;;11.85;3.35;;;16.00;99.90;;;;;;5000849;28;20029;-84
2023/08/07 07:56:37;;;;;;;13.85;3.72;;;16.10;99.90;;;;;;5016020;28;20030;-77
2023/08/07 07:59:03;;;;;;;14.23;3.35;;;16.10;99.90;;;;;;5016007;28;20033;-77
2023/08/07 08:01:28;;;;;;;16.50;2.65;;;16.10;99.90;;;;;;5000081;28;20128;-84
2023/08/07 08:03:54;;;;;;;9.02;2.10;;;16.10;99.90;;;;;;4999719;28;20021;-84
2023/08/07 08:06:20;;;;;;;14.25;2.80;;;16.00;99.90;;;;;;5016224;28;20025;-81
2023/08/07 08:08:46;;;;;;;12.55;2.60;;;16.00;99.90;;;;;;5033790;28;20083;-76
2023/08/07 08:11:11;;;;;;;8.45;2.20;;;15.90;99.90;;;;;;5033574;28;20038;-75
2023/08/07 08:13:39;;;;;;;12.70;2.80;;;15.90;99.90;;;;;;5034120;28;20482;-83
2023/08/07 08:16:05;;;;;;;14.43;2.75;;;15.90;99.90;;;;;;5016299;28;20021;-83
2023/08/07 08:18:31;;;;;;;15.63;3.05;;;15.90;99.90;;;;;;5033680;28;20034;-76
2023/08/07 08:20:57;;;;;;;10.32;2.42;;;15.90;99.90;;;;;;5015892;28;20362;-84
2023/08/07 08:23:23;;;;;;;11.13;2.78;;;16.00;99.90;;;;;;5015761;28;20041;-75
2023/08/07 08:25:48;;;;;;;9.27;2.40;;;16.00;99.90;;;;;;5033326;28;20017;-84
2023/08/07 08:28:15;;;;;;;10.90;3.05;;;16.10;99.90;;;;;;5033794;28;20030;-82
2023/08/07 08:30:41;;;;;;;9.68;2.45;;;16.10;99.90;;;;;;5015760;28;20041;-84
2023/08/07 08:33:09;;;;;;;9.45;2.58;;;16.10;99.90;;;;;;4999895;28;20022;-83
2023/08/07 08:35:35;;;;;;;15.02;2.97;;;16.20;99.90;;;;;;4999470;28;20171;-76
2023/08/07 08:38:03;;;;;;;9.32;2.38;;;16.30;99.90;;;;;;5015604;28;20029;-84
2023/08/07 08:40:30;;;;;;;12.48;3.83;;;16.40;99.90;;;;;;5033230;28;20034;-76
2023/08/07 08:42:57;;;;;;;11.18;2.90;;;16.30;99.90;;;;;;5033205;28;20021;-82
2023/08/07 08:45:26;;;;;;;12.18;2.92;;;16.20;99.90;;;;;;5033455;28;20167;-87
2023/08/07 08:47:57;;;;;;;14.77;3.25;;;16.00;99.90;;;;;;5033353;28;20042;-83
2023/08/07 08:50:23;;;;;;;11.30;2.25;;;15.90;99.90;;;;;;5015647;28;20025;-75
2023/08/07 08:52:53;;;;;;;12.30;2.53;;;15.90;99.90;;;;;;5015581;28;20033;-75
2023/08/07 08:55:20;;;;;;;12.90;3.28;;;15.90;99.90;;;;;;5033409;28;20057;-85
2023/08/07 08:57:46;;;;;;;10.55;2.63;;;16.00;99.90;;;;;;5015800;28;20028;-85
2023/08/07 09:00:20;;;;;;;10.45;2.15;;;16.00;99.90;;;;;;5015270;28;20120;-76
2023/08/07 09:02:50;;;;;;;14.68;3.70;;;16.10;99.90;;;;;;5015645;28;20429;-84
2023/08/07 09:05:18;;;;;;;14.77;2.70;;;16.20;99.90;;;;;;5033120;28;20474;-84
2023/08/07 09:07:46;;;;;;;9.70;2.58;;;16.30;99.90;;;;;;5035953;28;20032;-87
2023/08/07 09:10:13;;;;;;;9.10;2.65;;;16.30;99.90;;;;;;5036889;28;20381;-76
2023/08/07 09:12:57;;;;;;;8.68;2.50;;;16.30;99.90;;;;;;5019669;28;20057;-84
2023/08/07 09:15:24;;;;;;;12.05;2.22;;;16.30;99.90;;;;;;5019074;28;20029;-75
2023/08/07 09:17:52;;;;;;;8.90;2.08;;;16.30;99.90;;;;;;5002715;28;20362;-84
2023/08/07 09:20:19;;;;;;;10.25;2.40;;;16.30;99.90;;;;;;5036789;28;20489;-77
2023/08/07 09:22:46;;;;;;;9.88;2.20;;;16.30;99.90;;;;;;5036665;28;20017;-76
2023/08/07 09:25:11;;;;;;;12.65;2.17;;;16.30;99.90;;;;;;5019491;28;20025;-79
2023/08/07 09:27:38;;;;;;;10.30;2.00;;;16.30;99.90;;;;;;5002755;28;20113;-85
2023/08/07 09:30:10;;;;;;;14.10;2.33;;;16.50;99.90;;;;;;5036853;28;20543;-85
2023/08/07 09:32:36;;;;;;;11.85;2.13;;;16.60;99.80;;;;;;5015303;28;20057;-76
2023/08/07 09:35:04;;;;;;;10.05;1.77;;;16.80;99.00;;;;;;5015507;28;20030;-85
2023/08/07 09:37:30;;;;;;;11.68;2.22;;;16.80;98.30;;;;;;5015450;28;20398;-84
2023/08/07 09:39:57;;;;;;;9.52;2.38;;;16.80;98.20;;;;;;5015453;28;20045;-77
2023/08/07 09:42:24;;;;;;;10.77;2.05;;;16.80;98.20;;;;;;5015410;28;20029;-78
2023/08/07 09:44:50;;;;;;;12.30;2.25;;;16.80;98.50;;;;;;5016618;28;20026;-78
2023/08/07 09:47:19;;;;;;;13.27;2.47;;;16.80;98.40;;;;;;4998912;28;20022;-76
2023/08/07 09:49:46;;;;;;;8.55;2.20;;;16.90;98.80;;;;;;4998897;28;20037;-84
2023/08/07 09:52:14;;;;;;;5.32;1.73;;;17.00;98.70;;;;;;4999026;28;20037;-84
2023/08/07 09:54:40;;;;;;;16.00;2.17;;;17.10;98.10;;;;;;4999427;28;20033;-76
2023/08/07 09:57:06;;;;;;;11.65;2.45;;;17.20;98.00;;;;;;4998909;28;20052;-77
2023/08/07 09:59:33;;;;;;;9.70;1.75;;;17.30;97.60;;;;;;5014801;28;20030;-76
2023/08/07 10:02:01;;;;;;;6.10;1.70;;;17.30;96.60;;;;;;5015961;28;20363;-77
2023/08/07 10:04:27;;;;;;;6.80;1.60;;;17.40;96.70;;;;;;5016405;28;20022;-85
2023/08/07 10:06:53;;;;;;;12.13;1.80;;;17.40;96.70;;;;;;4998945;28;20424;-85
2023/08/07 10:09:20;;;;;;;7.10;2.05;;;17.40;95.10;;;;;;4998815;28;20026;-86
2023/08/07 10:11:46;;;;;;;7.57;1.92;;;17.50;94.60;;;;;;4998681;28;20069;-84
2023/08/07 10:14:16;;;;;;;9.63;2.00;;;17.50;94.30;;;;;;4998385;28;20058;-78
2023/08/07 10:16:42;;;;;;;8.60;1.90;;;17.70;94.00;;;;;;5014807;28;20025;-84
2023/08/07 10:19:09;;;;;;;6.00;1.58;;;17.80;92.90;;;;;;5014669;28;20033;-87
2023/08/07 10:21:42;;;;;;;8.73;1.52;;;17.90;92.50;;;;;;5014431;28;20022;-78
2023/08/07 10:24:09;;;;;;;;;;;18.00;91.40;;;;;;5016820;28;20127;-90
2023/08/07 10:26:37;;;;;;;7.53;1.85;;;18.00;91.20;;;;;;5016002;28;19906;-87
2023/08/07 10:29:09;;;;;;;9.52;2.05;;;18.00;90.20;;;;;;5016092;28;20034;-79
2023/08/07 10:31:35;;;;;;;8.57;1.73;;;18.00;90.30;;;;;;5025998;28;20044;-88
2023/08/07 10:34:02;;;;;;;11.93;1.92;;;17.80;90.20;;;;;;5001547;28;20389;-78
2023/08/07 10:36:34;;;;;;;9.25;1.80;;;17.80;90.10;;;;;;5017593;28;20402;-85
2023/08/07 10:39:12;;;;;;;11.27;1.65;;;17.80;90.30;;;;;;5001679;28;20033;-80
2023/08/07 10:41:52;;;;;;;5.75;1.33;;;17.80;90.90;;;;;;5035457;28;20504;-78
2023/08/07 10:44:25;;;;;;;8.82;2.38;;;17.90;90.80;;;;;;5035336;28;20021;-79
2023/08/07 10:46:56;;;;;;;7.25;1.70;;;18.00;91.00;;;;;;5017343;28;20022;-78
2023/08/07 10:49:32;;;;;;;7.90;1.80;;;18.10;90.80;;;;;;5035950;28;20057;-86
2023/08/07 10:51:58;;;;;;;8.55;1.70;;;18.20;90.20;;;;;;5017584;28;20108;-85
2023/08/07 10:54:25;;;;;;;6.53;1.35;;;18.30;87.90;;;;;;5001576;28;20034;-79
2023/08/07 10:56:54;;;;;;;6.22;1.40;;;18.20;87.00;;;;;;5001117;28;20460;-84
2023/08/07 10:59:21;;;;;;;7.88;1.48;;;18.20;88.30;;;;;;5018035;28;20080;-86
2023/08/07 11:01:52;;;;;;;6.32;1.42;;;18.30;87.50;;;;;;5017149;28;20420;-79
2023/08/07 11:04:18;;;;;;;5.28;1.20;;;18.30;85.60;;;;;;5017209;28;20478;-79
2023/08/07 11:06:48;;;;;;;6.03;1.17;;;18.40;85.50;;;;;;5017677;28;20109;-88
2023/08/07 11:09:13;;;;;;;7.65;1.25;;;18.60;85.20;;;;;;5017703;28;20018;-77
2023/08/07 11:11:44;;;;;;;8.20;1.73;;;19.10;86.20;;;;;;5017850;28;20373;-87
2023/08/07 11:14:22;;;;;;;5.13;1.27;;;19.80;84.70;;;;;;5017427;28;20025;-80
2023/08/07 11:16:48;;;;;;;9.25;1.45;;;20.50;82.40;;;;;;5000591;28;20033;-87
2023/08/07 11:19:17;;;;;;;6.88;0.98;;;21.00;83.60;;;;;;5000374;28;20102;-78
2023/08/07 11:21:44;;;;;;;3.70;0.98;;;21.70;83.20;;;;;;5017676;28;20473;-87
2023/08/07 11:24:13;;;;;;;7.07;0.80;;;22.30;77.20;;;;;;5016909;28;20030;-86
2023/08/07 11:26:39;;;;;;;6.70;1.15;;;22.60;75.20;;;;;;5017812;28;20045;-80
2023/08/07 11:29:06;;;;;;;7.30;1.20;;;22.60;72.20;;;;;;5016663;28;20527;-80
2023/08/07 11:31:32;;;;;;;6.45;1.23;;;22.20;69.30;;;;;;5035302;28;20045;-87
2023/08/07 11:33:58;;;;;;;6.68;0.93;;;21.90;70.00;;;;;;5000146;28;20465;-85
2023/08/07 11:36:24;;;;;;;8.63;1.42;;;21.80;71.20;;;;;;5016936;28;20029;-79
2023/08/07 11:38:50;;;;;;;5.43;1.10;;;21.70;69.40;;;;;;5016788;28;20108;-77
2023/08/07 11:41:17;;;;;;;4.65;0.80;;;21.60;70.40;;;;;;5000456;28;20109;-88
2023/08/07 11:43:43;;;;;;;9.98;1.25;;;21.70;71.60;;;;;;5016713;28;20100;-79
2023/08/07 11:46:12;;;;;;;8.00;1.50;;;21.80;71.30;;;;;;5016520;28;20045;-87
2023/08/07 11:48:39;;;;;;;6.10;1.58;;;21.70;70.20;;;;;;5034540;28;20017;-79
2023/08/07 11:51:06;;;;;;;6.80;1.20;;;21.40;70.50;;;;;;5016689;28;20061;-85
2023/08/07 11:53:34;;;;;;;10.77;1.92;;;21.10;72.00;;;;;;5000233;28;20116;-78
2023/08/07 11:56:03;;;;;;;7.68;1.10;;;20.80;71.70;;;;;;5015835;28;20031;-78
2023/08/07 11:58:41;;;;;;;7.72;1.73;;;20.40;72.50;;;;;;4999910;28;20366;-76
2023/08/07 12:01:17;;;;;;;5.32;1.27;;;20.20;74.50;;;;;;5015874;28;20421;-78
2023/08/07 12:03:55;;;;;;;7.00;1.20;;;20.30;73.60;;;;;;5033777;28;20374;-80
2023/08/07 12:06:22;;;;;;;3.95;1.08;;;20.20;73.00;;;;;;5015871;28;20028;-81
2023/08/07 12:08:52;;;;;;;4.93;1.00;;;20.20;73.60;;;;;;4999397;28;20026;-79
2023/08/07 12:11:19;;;;;;;5.72;1.13;;;20.30;73.30;;;;;;5033649;28;20060;-77
2023/08/07 12:13:45;;;;;;;5.50;1.13;;;20.40;73.10;;;;;;5033582;28;20492;-78
2023/08/07 12:16:17;;;;;;;7.18;1.20;;;20.70;73.00;;;;;;5015998;28;20029;-79
2023/08/07 12:18:48;;;;;;;4.85;1.02;;;21.10;71.90;;;;;;5000063;28;20440;-78
2023/08/07 12:21:15;;;;;;;6.05;1.20;;;21.70;71.90;;;;;;5015607;28;20493;-79
2023/08/07 12:23:41;;;;;;;7.60;1.10;;;22.30;70.50;;;;;;5016156;28;20377;-81
2023/08/07 12:26:07;;;;;;;8.52;1.40;;;22.90;69.50;;;;;;5016036;28;20025;-80
2023/08/07 12:28:35;;;;;;;5.78;1.40;;;23.50;66.90;;;;;;4999313;28;20021;-80
2023/08/07 12:31:00;;;;;;;5.75;1.15;;;23.90;65.60;;;;;;5033088;28;20398;-81
2023/08/07 12:33:28;;;;;;;6.18;1.15;;;24.20;64.40;;;;;;5015840;28;20025;-80
2023/08/07 12:35:54;;;;;;;7.32;1.30;;;24.60;63.10;;;;;;5033117;28;20033;-79
2023/08/07 12:38:19;;;;;;;5.38;1.00;;;24.80;60.80;;;;;;4999440;28;20389;-81
2023/08/07 12:40:46;;;;;;;5.40;1.25;;;25.10;60.50;;;;;;5013102;28;20037;-78